Time;durP1;ratioP1;P1;durP2;ratioP2;P2;SDS_P1;SDS_P2;PMS_P1;PMS_P2;Temp;Humidity;BMP_temperature;BMP_pressure;BME280_temperature;BME280_humidity;BME280_pressure;Samples;Min_cycle;Max_cycle;Signal;HPM_P1;HPM_P2
2023/10/23 00:00:57;;;;;;;2.60;1.45;;;8.70;99.90;;;;;;5032419;28;20108;-49
2023/10/23 00:03:23;;;;;;;4.60;2.33;;;8.70;99.90;;;;;;5032702;28;20025;-47
2023/10/23 00:05:48;;;;;;;3.78;1.45;;;8.70;99.90;;;;;;5032264;28;20025;-53
2023/10/23 00:08:14;;;;;;;3.85;1.80;;;8.70;99.90;;;;;;5032373;28;20103;-44
2023/10/23 00:10:42;;;;;;;6.93;1.60;;;8.60;99.90;;;;;;5032470;28;20024;-47
2023/10/23 00:13:08;;;;;;;2.72;1.40;;;8.70;99.90;;;;;;5032227;28;20026;-46
2023/10/23 00:15:34;;;;;;;3.58;1.27;;;8.70;99.90;;;;;;5032216;28;20028;-44
2023/10/23 00:18:00;;;;;;;2.08;1.30;;;8.70;99.90;;;;;;5032411;28;20029;-56
2023/10/23 00:20:25;;;;;;;3.13;1.40;;;8.60;99.90;;;;;;5031802;28;20071;-46
2023/10/23 00:22:51;;;;;;;4.93;1.58;;;8.70;99.90;;;;;;5032240;28;20228;-48
2023/10/23 00:25:16;;;;;;;2.45;1.38;;;8.60;99.90;;;;;;5031924;28;20433;-51
2023/10/23 00:27:42;;;;;;;3.67;1.80;;;8.70;99.90;;;;;;5032044;28;20017;-48
2023/10/23 00:30:08;;;;;;;3.80;1.50;;;8.60;99.90;;;;;;5031999;28;20037;-51
2023/10/23 00:32:34;;;;;;;3.72;1.35;;;8.60;99.90;;;;;;5031884;28;20041;-51
2023/10/23 00:34:59;;;;;;;2.67;1.50;;;8.60;99.90;;;;;;5031835;28;20033;-53
2023/10/23 00:37:25;;;;;;;5.70;2.00;;;8.70;99.90;;;;;;5031791;28;20357;-52
2023/10/23 00:39:50;;;;;;;6.22;1.70;;;8.70;99.90;;;;;;5031725;28;20029;-49
2023/10/23 00:42:16;;;;;;;2.70;1.40;;;8.60;99.90;;;;;;5031576;28;20049;-44
2023/10/23 00:44:42;;;;;;;2.28;1.45;;;8.70;99.90;;;;;;5031933;28;20029;-46
2023/10/23 00:47:09;;;;;;;5.38;1.70;;;8.70;99.90;;;;;;5031686;28;20022;-45
2023/10/23 00:49:35;;;;;;;4.50;1.60;;;8.60;99.90;;;;;;5031678;28;20029;-52
2023/10/23 00:52:01;;;;;;;8.25;1.73;;;8.60;99.90;;;;;;5031640;28;20021;-45
2023/10/23 00:54:28;;;;;;;3.97;1.50;;;8.60;99.90;;;;;;5031423;28;20033;-44
2023/10/23 00:56:54;;;;;;;2.55;1.38;;;8.70;99.90;;;;;;5031446;28;20030;-52
2023/10/23 00:59:21;;;;;;;2.90;1.40;;;8.70;99.90;;;;;;5031341;28;20477;-44
2023/10/23 01:01:47;;;;;;;3.83;1.45;;;8.70;99.90;;;;;;5031305;28;20021;-44
2023/10/23 01:04:13;;;;;;;2.72;1.27;;;8.70;99.90;;;;;;5031150;28;20029;-49
2023/10/23 01:06:38;;;;;;;4.68;1.60;;;8.70;99.90;;;;;;5031202;28;20365;-45
2023/10/23 01:09:05;;;;;;;3.72;1.45;;;8.70;99.90;;;;;;5031139;28;20029;-52
2023/10/23 01:11:30;;;;;;;3.22;1.48;;;8.70;99.90;;;;;;5031261;28;20148;-50
2023/10/23 01:13:56;;;;;;;5.25;1.67;;;8.80;99.90;;;;;;5030900;28;20485;-51
2023/10/23 01:16:22;;;;;;;3.80;1.60;;;8.80;99.90;;;;;;5031119;28;20075;-46
2023/10/23 01:18:48;;;;;;;4.80;1.80;;;8.80;99.90;;;;;;5031183;28;20111;-49
2023/10/23 01:21:13;;;;;;;7.68;1.70;;;8.80;99.90;;;;;;5031011;28;20078;-46
2023/10/23 01:23:42;;;;;;;7.35;1.45;;;8.90;99.90;;;;;;5030819;28;20029;-48
2023/10/23 01:26:07;;;;;;;2.50;1.30;;;8.90;99.90;;;;;;5031210;28;20026;-47
2023/10/23 01:28:33;;;;;;;2.58;1.30;;;8.90;99.90;;;;;;5030892;28;20084;-47
2023/10/23 01:30:58;;;;;;;4.22;1.58;;;8.90;99.90;;;;;;5031084;28;20025;-46
2023/10/23 01:33:24;;;;;;;4.40;1.70;;;8.90;99.90;;;;;;5029793;28;20531;-54
2023/10/23 01:35:50;;;;;;;5.85;1.42;;;8.90;99.90;;;;;;5029812;28;20033;-46
2023/10/23 01:38:17;;;;;;;4.72;1.58;;;8.90;99.90;;;;;;5030311;28;20021;-53
2023/10/23 01:40:42;;;;;;;3.25;1.60;;;8.80;99.90;;;;;;5030922;28;20033;-52
2023/10/23 01:43:08;;;;;;;10.63;1.65;;;8.80;99.90;;;;;;5030863;28;20049;-52
2023/10/23 01:45:33;;;;;;;2.63;1.30;;;8.70;99.90;;;;;;5030604;28;20496;-53
2023/10/23 01:47:59;;;;;;;2.85;1.60;;;8.70;99.90;;;;;;5030858;28;20085;-50
2023/10/23 01:50:25;;;;;;;5.05;1.70;;;8.70;99.90;;;;;;5030536;28;20160;-48
2023/10/23 01:52:51;;;;;;;3.08;1.67;;;8.70;99.90;;;;;;5030421;28;20021;-48
2023/10/23 01:55:16;;;;;;;2.42;1.20;;;8.70;99.90;;;;;;5030531;28;20096;-45
2023/10/23 01:57:42;;;;;;;3.28;1.50;;;8.60;99.90;;;;;;5030520;28;20021;-50
2023/10/23 02:00:10;;;;;;;3.72;1.80;;;8.60;99.90;;;;;;5030617;28;20034;-53
2023/10/23 02:02:36;;;;;;;6.30;1.48;;;8.60;99.90;;;;;;5030427;28;20488;-45
2023/10/23 02:05:03;;;;;;;2.10;1.17;;;8.50;99.90;;;;;;5030414;28;20095;-53
2023/10/23 02:07:29;;;;;;;2.33;1.17;;;8.50;99.90;;;;;;5030374;28;20022;-53
2023/10/23 02:09:58;;;;;;;3.25;1.63;;;8.60;99.90;;;;;;5030364;28;20026;-43
2023/10/23 02:12:24;;;;;;;6.03;1.63;;;8.60;99.90;;;;;;5030386;28;20034;-52
2023/10/23 02:14:53;;;;;;;4.60;1.60;;;8.60;99.90;;;;;;5030141;28;20099;-51
2023/10/23 02:17:19;;;;;;;2.15;1.10;;;8.60;99.90;;;;;;5030541;28;20029;-44
2023/10/23 02:19:45;;;;;;;5.47;1.80;;;8.60;99.90;;;;;;5030188;28;20079;-45
2023/10/23 02:22:11;;;;;;;1.73;1.20;;;8.60;99.90;;;;;;5030344;28;20022;-45
2023/10/23 02:24:37;;;;;;;4.53;1.60;;;8.70;99.90;;;;;;5030237;28;20029;-48
2023/10/23 02:27:02;;;;;;;2.00;1.40;;;8.70;99.90;;;;;;5030423;28;20041;-47
2023/10/23 02:29:28;;;;;;;3.85;1.67;;;8.70;99.90;;;;;;5030418;28;20157;-50
2023/10/23 02:31:55;;;;;;;6.03;1.50;;;8.70;99.90;;;;;;5030178;28;20025;-49
2023/10/23 02:34:20;;;;;;;4.38;1.90;;;8.70;99.90;;;;;;5030070;28;20121;-53
2023/10/23 02:36:47;;;;;;;5.10;1.75;;;8.70;99.90;;;;;;5030327;28;20081;-46
2023/10/23 02:39:13;;;;;;;5.78;1.80;;;8.70;99.90;;;;;;5030228;28;20424;-52
2023/10/23 02:41:39;;;;;;;2.95;1.65;;;8.80;99.90;;;;;;5030300;28;20049;-51
2023/10/23 02:44:05;;;;;;;4.63;1.88;;;8.70;99.90;;;;;;5030164;28;20566;-55
2023/10/23 02:46:38;;;;;;;4.85;1.60;;;8.80;99.90;;;;;;5033944;28;20021;-50
2023/10/23 02:49:05;;;;;;;3.22;1.40;;;8.80;99.90;;;;;;5033395;28;20060;-52
2023/10/23 02:51:31;;;;;;;3.40;1.70;;;8.80;99.90;;;;;;5033878;28;20025;-46
2023/10/23 02:53:56;;;;;;;6.60;1.60;;;8.80;99.90;;;;;;5033729;28;20033;-50
2023/10/23 02:56:22;;;;;;;6.82;2.03;;;8.80;99.90;;;;;;5033975;28;20108;-45
2023/10/23 02:58:48;;;;;;;3.45;1.60;;;8.90;99.90;;;;;;5033576;28;20469;-46
2023/10/23 03:01:19;;;;;;;4.15;1.88;;;8.90;99.90;;;;;;5033746;28;20112;-49
2023/10/23 03:03:45;;;;;;;3.20;1.40;;;8.90;99.90;;;;;;5033945;28;20021;-52
2023/10/23 03:06:11;;;;;;;2.00;1.15;;;8.90;99.90;;;;;;5033487;28;20065;-49
2023/10/23 03:08:37;;;;;;;5.82;1.50;;;8.90;99.90;;;;;;5033630;28;20029;-48
2023/10/23 03:11:02;;;;;;;2.97;1.65;;;8.90;99.90;;;;;;5033388;28;20034;-47
2023/10/23 03:13:28;;;;;;;3.65;1.40;;;8.90;99.90;;;;;;5033446;28;20030;-46
2023/10/23 03:15:54;;;;;;;5.15;1.45;;;8.90;99.90;;;;;;5033229;28;20037;-48
2023/10/23 03:18:20;;;;;;;2.78;1.45;;;8.90;99.90;;;;;;5033412;28;20026;-49
2023/10/23 03:20:45;;;;;;;2.05;1.30;;;8.90;99.90;;;;;;5033437;28;20018;-45
2023/10/23 03:23:11;;;;;;;3.42;1.67;;;8.90;99.90;;;;;;5033116;28;20617;-50
2023/10/23 03:25:36;;;;;;;2.67;1.63;;;8.90;99.90;;;;;;5033289;28;20029;-52
2023/10/23 03:28:02;;;;;;;2.63;1.30;;;9.00;99.90;;;;;;5033056;28;20103;-51
2023/10/23 03:30:27;;;;;;;2.97;1.40;;;9.00;99.90;;;;;;5033147;28;20029;-49
2023/10/23 03:32:53;;;;;;;3.72;1.20;;;9.00;99.90;;;;;;5032806;28;20049;-44
2023/10/23 03:35:19;;;;;;;2.03;1.10;;;9.00;99.90;;;;;;5032971;28;20037;-44
2023/10/23 03:37:44;;;;;;;3.35;1.60;;;9.00;99.90;;;;;;5032991;28;20026;-47
2023/10/23 03:40:10;;;;;;;2.95;1.40;;;8.90;99.90;;;;;;5032874;28;20629;-46
2023/10/23 03:42:36;;;;;;;3.58;1.77;;;8.90;99.90;;;;;;5032849;28;20029;-49
2023/10/23 03:45:02;;;;;;;3.85;1.40;;;9.00;99.90;;;;;;5033000;28;20100;-47
2023/10/23 03:47:28;;;;;;;2.50;1.33;;;8.90;99.90;;;;;;5032816;28;20079;-52
2023/10/23 03:49:54;;;;;;;4.40;1.83;;;8.90;99.90;;;;;;5032888;28;20026;-50
2023/10/23 03:52:19;;;;;;;3.65;1.70;;;8.90;99.90;;;;;;5032695;28;20416;-51
2023/10/23 03:54:45;;;;;;;5.57;1.45;;;8.90;99.90;;;;;;5032502;28;20041;-44
2023/10/23 03:57:10;;;;;;;3.63;1.60;;;8.90;99.90;;;;;;5032060;28;20109;-49
2023/10/23 03:59:36;;;;;;;3.65;1.40;;;8.90;99.90;;;;;;5032448;28;20032;-44
2023/10/23 04:02:02;;;;;;;1.90;1.15;;;9.00;99.90;;;;;;5032773;28;20487;-48
2023/10/23 04:04:27;;;;;;;2.58;1.27;;;9.00;99.90;;;;;;5032011;28;20034;-48
2023/10/23 04:06:53;;;;;;;3.35;1.60;;;9.00;99.90;;;;;;5032517;28;20030;-53
2023/10/23 04:09:18;;;;;;;4.93;1.67;;;9.00;99.90;;;;;;5032243;28;20029;-49
2023/10/23 04:11:44;;;;;;;4.65;1.55;;;9.00;99.90;;;;;;5032431;28;20057;-53
2023/10/23 04:14:10;;;;;;;2.17;1.33;;;9.00;99.90;;;;;;5032094;28;20396;-53
2023/10/23 04:16:35;;;;;;;3.13;1.30;;;9.00;99.90;;;;;;5032283;28;20030;-49
2023/10/23 04:19:01;;;;;;;6.18;1.65;;;8.90;99.90;;;;;;5032242;28;20051;-45
2023/10/23 04:21:27;;;;;;;3.67;1.63;;;9.00;99.90;;;;;;5032141;28;20026;-46
2023/10/23 04:23:53;;;;;;;4.93;1.30;;;9.00;99.90;;;;;;5032130;28;20519;-45
2023/10/23 04:26:18;;;;;;;4.03;1.40;;;9.00;99.90;;;;;;5031962;28;20109;-50
2023/10/23 04:28:44;;;;;;;1.58;1.00;;;9.00;99.90;;;;;;5031946;28;20029;-52
2023/10/23 04:31:09;;;;;;;5.70;1.35;;;9.00;99.90;;;;;;5031724;28;20484;-51
2023/10/23 04:33:35;;;;;;;2.50;1.23;;;9.00;99.90;;;;;;5031556;28;20060;-53
2023/10/23 04:36:01;;;;;;;4.55;1.25;;;9.00;99.90;;;;;;5031864;28;20388;-50
2023/10/23 04:38:27;;;;;;;2.28;1.30;;;9.00;99.90;;;;;;5031687;28;20586;-56
2023/10/23 04:40:53;;;;;;;3.15;1.15;;;9.00;99.90;;;;;;5031796;28;20500;-55
2023/10/23 04:43:19;;;;;;;6.47;1.40;;;9.00;99.90;;;;;;5031585;28;20052;-53
2023/10/23 04:45:45;;;;;;;2.78;1.10;;;9.00;99.90;;;;;;5031635;28;20026;-46
2023/10/23 04:48:10;;;;;;;4.60;1.25;;;9.10;99.90;;;;;;5031910;28;20032;-54
2023/10/23 04:50:38;;;;;;;3.15;1.08;;;9.20;99.90;;;;;;5031567;28;20528;-49
2023/10/23 04:53:04;;;;;;;2.50;1.27;;;9.30;99.90;;;;;;5031529;28;20481;-50
2023/10/23 04:55:41;;;;;;;3.58;1.05;;;9.40;99.90;;;;;;5031340;28;20131;-52
2023/10/23 04:58:08;;;;;;;4.85;1.45;;;9.60;99.90;;;;;;5031600;28;20036;-57
2023/10/23 05:00:38;;;;;;;6.55;1.40;;;9.80;99.90;;;;;;5031320;28;20018;-50
2023/10/23 05:03:04;;;;;;;5.97;1.48;;;9.90;99.90;;;;;;5031741;28;20037;-52
2023/10/23 05:05:33;;;;;;;3.90;1.63;;;10.00;99.90;;;;;;5031446;28;20026;-54
2023/10/23 05:07:59;;;;;;;2.40;1.13;;;10.00;99.90;;;;;;5030649;28;20025;-53
2023/10/23 05:10:25;;;;;;;9.85;1.40;;;10.00;99.90;;;;;;5031238;28;20029;-53
2023/10/23 05:12:51;;;;;;;2.70;1.20;;;10.10;99.90;;;;;;5031062;28;20051;-55
2023/10/23 05:15:17;;;;;;;4.70;1.58;;;10.10;99.90;;;;;;5031241;28;20037;-50
2023/10/23 05:17:43;;;;;;;7.43;2.03;;;10.20;99.90;;;;;;5031033;28;20025;-50
2023/10/23 05:20:09;;;;;;;8.07;1.40;;;10.20;99.90;;;;;;5031122;28;20021;-55
2023/10/23 05:22:35;;;;;;;2.53;1.20;;;10.20;99.90;;;;;;5030840;28;20024;-51
2023/10/23 05:25:00;;;;;;;3.20;1.85;;;10.10;99.90;;;;;;5031109;28;20025;-54
2023/10/23 05:27:26;;;;;;;4.35;1.60;;;10.00;99.90;;;;;;5030971;28;20043;-47
2023/10/23 05:29:52;;;;;;;3.83;1.40;;;10.00;99.90;;;;;;5030810;28;20487;-51
2023/10/23 05:32:18;;;;;;;7.70;1.55;;;9.90;99.90;;;;;;5030578;28;20046;-48
2023/10/23 05:34:44;;;;;;;5.18;1.40;;;9.80;99.90;;;;;;5030698;28;20065;-52
2023/10/23 05:37:10;;;;;;;6.35;1.60;;;9.80;99.90;;;;;;5030871;28;20025;-48
2023/10/23 05:39:36;;;;;;;2.45;1.38;;;9.80;99.90;;;;;;5030695;28;20065;-46
2023/10/23 05:42:02;;;;;;;1.70;1.00;;;9.80;99.90;;;;;;5030774;28;20079;-53
2023/10/23 05:44:27;;;;;;;5.47;1.20;;;9.70;99.90;;;;;;5030930;28;20839;-56
2023/10/23 05:46:53;;;;;;;4.70;1.10;;;9.70;99.90;;;;;;5030828;28;20052;-52
2023/10/23 05:49:19;;;;;;;4.30;1.23;;;9.70;99.90;;;;;;5030918;28;20025;-52
2023/10/23 05:51:44;;;;;;;4.60;1.15;;;9.80;99.90;;;;;;5029315;28;20067;-53
2023/10/23 05:54:10;;;;;;;6.85;1.17;;;9.80;99.90;;;;;;5030258;28;20484;-48
2023/10/23 05:56:36;;;;;;;4.85;1.55;;;9.80;99.90;;;;;;5030397;28;20032;-45
2023/10/23 05:59:03;;;;;;;9.38;1.63;;;9.80;99.90;;;;;;5030188;28;20525;-52
2023/10/23 06:01:29;;;;;;;5.20;1.33;;;9.80;99.90;;;;;;5030598;28;20064;-49
2023/10/23 06:03:55;;;;;;;3.75;1.40;;;9.80;99.90;;;;;;5030394;28;20051;-46
2023/10/23 06:06:21;;;;;;;4.57;1.40;;;9.80;99.90;;;;;;5030501;28;20500;-48
2023/10/23 06:08:46;;;;;;;5.20;1.67;;;9.80;99.90;;;;;;5030562;28;20025;-53
2023/10/23 06:11:12;;;;;;;2.47;1.25;;;9.80;99.90;;;;;;5030260;28;20199;-56
2023/10/23 06:13:39;;;;;;;8.00;2.00;;;9.80;99.90;;;;;;5030490;28;20061;-52
2023/10/23 06:16:05;;;;;;;3.03;1.40;;;9.70;99.90;;;;;;5030293;28;20068;-48
2023/10/23 06:18:34;;;;;;;5.38;1.60;;;9.70;99.90;;;;;;5031322;28;20057;-46
2023/10/23 06:21:03;;;;;;;3.92;1.33;;;9.70;99.90;;;;;;5034295;28;20026;-50
2023/10/23 06:23:32;;;;;;;3.60;1.25;;;9.70;99.90;;;;;;5034438;28;20057;-56
2023/10/23 06:25:59;;;;;;;3.80;1.33;;;9.60;99.90;;;;;;5034518;28;20080;-51
2023/10/23 06:28:28;;;;;;;3.65;1.83;;;9.50;99.90;;;;;;5034483;28;20034;-45
2023/10/23 06:30:53;;;;;;;4.50;1.40;;;9.40;99.90;;;;;;5034261;28;20105;-53
2023/10/23 06:33:19;;;;;;;6.28;1.90;;;9.40;99.90;;;;;;5033874;28;20129;-52
2023/10/23 06:35:45;;;;;;;3.55;1.60;;;9.30;99.90;;;;;;5034112;28;20095;-48
2023/10/23 06:38:10;;;;;;;3.58;1.50;;;9.40;99.90;;;;;;5033893;28;20080;-52
2023/10/23 06:40:36;;;;;;;7.78;1.80;;;9.30;99.90;;;;;;5034308;28;20029;-54
2023/10/23 06:43:02;;;;;;;4.22;1.52;;;9.30;99.90;;;;;;5033863;28;20029;-58
2023/10/23 06:45:27;;;;;;;6.20;1.98;;;9.30;99.90;;;;;;5033927;28;20029;-51
2023/10/23 06:47:53;;;;;;;3.78;1.38;;;9.30;99.90;;;;;;5033983;28;20548;-54
2023/10/23 06:50:19;;;;;;;2.30;1.30;;;9.30;99.90;;;;;;5033848;28;20025;-53
2023/10/23 06:52:45;;;;;;;2.65;1.40;;;9.30;99.90;;;;;;5033768;28;20017;-45
2023/10/23 06:55:11;;;;;;;8.23;2.42;;;9.30;99.90;;;;;;5033669;28;20322;-45
2023/10/23 06:57:37;;;;;;;5.50;1.90;;;9.20;99.90;;;;;;5033729;28;20057;-48
2023/10/23 07:00:03;;;;;;;6.25;1.98;;;9.20;99.90;;;;;;5033466;28;20075;-51
2023/10/23 07:02:29;;;;;;;5.30;1.80;;;9.30;99.90;;;;;;5033447;28;20045;-56
2023/10/23 07:04:54;;;;;;;6.50;1.50;;;9.30;99.90;;;;;;5033450;28;20028;-47
2023/10/23 07:07:20;;;;;;;3.80;1.65;;;9.30;99.90;;;;;;5033321;28;20092;-56
2023/10/23 07:09:45;;;;;;;4.82;1.58;;;9.20;99.90;;;;;;5033337;28;20106;-55
2023/10/23 07:12:12;;;;;;;3.33;1.60;;;9.40;99.90;;;;;;5033333;28;20025;-51
2023/10/23 07:14:38;;;;;;;7.82;2.05;;;9.40;99.90;;;;;;5033140;28;20048;-49
2023/10/23 07:17:03;;;;;;;2.78;1.30;;;9.40;99.90;;;;;;5032818;28;20081;-49
2023/10/23 07:19:29;;;;;;;4.60;1.67;;;9.50;99.90;;;;;;5032942;28;20044;-50
2023/10/23 07:21:54;;;;;;;4.18;1.73;;;9.50;99.90;;;;;;5033195;28;20100;-44
2023/10/23 07:24:20;;;;;;;3.85;1.92;;;9.60;99.90;;;;;;5032853;28;20401;-46
2023/10/23 07:26:45;;;;;;;2.78;1.35;;;9.70;99.90;;;;;;5029898;28;20030;-45
2023/10/23 07:29:11;;;;;;;4.22;1.58;;;9.80;99.90;;;;;;5026096;28;20499;-47
2023/10/23 07:31:37;;;;;;;4.00;1.70;;;9.80;99.90;;;;;;5030683;28;20034;-45
2023/10/23 07:34:03;;;;;;;6.95;1.70;;;9.90;99.90;;;;;;5032655;28;20048;-45
2023/10/23 07:36:29;;;;;;;4.35;1.75;;;10.00;99.90;;;;;;5032837;28;20029;-45
2023/10/23 07:38:55;;;;;;;3.17;1.65;;;10.10;99.90;;;;;;5032912;28;20030;-45
2023/10/23 07:41:21;;;;;;;4.78;1.80;;;10.10;99.90;;;;;;5032978;28;20109;-48
2023/10/23 07:43:46;;;;;;;4.00;1.50;;;10.20;99.90;;;;;;5033004;28;20395;-51
2023/10/23 07:46:12;;;;;;;5.35;2.42;;;10.20;99.90;;;;;;5032892;28;20029;-50
2023/10/23 07:48:39;;;;;;;4.28;1.60;;;10.40;99.90;;;;;;5032631;28;20029;-56
2023/10/23 07:51:04;;;;;;;5.25;1.40;;;10.50;99.90;;;;;;5032734;28;20017;-50
2023/10/23 07:53:35;;;;;;;5.97;1.30;;;10.70;99.90;;;;;;5032534;28;20099;-49
2023/10/23 07:56:01;;;;;;;4.18;1.10;;;10.90;99.90;;;;;;5032708;28;20108;-48
2023/10/23 07:58:27;;;;;;;4.70;1.58;;;11.10;99.90;;;;;;5032763;28;20049;-53
2023/10/23 08:01:06;;;;;;;4.05;1.63;;;11.20;99.90;;;;;;5032416;28;20497;-52
2023/10/23 08:03:33;;;;;;;7.20;1.48;;;11.40;99.90;;;;;;5029116;28;20018;-48
2023/10/23 08:06:00;;;;;;;3.17;1.30;;;11.60;99.90;;;;;;5032653;28;20037;-52
2023/10/23 08:08:26;;;;;;;7.45;1.55;;;11.80;99.90;;;;;;5031473;28;20025;-46
2023/10/23 08:10:51;;;;;;;6.57;1.35;;;12.00;99.90;;;;;;5031835;28;20392;-54
2023/10/23 08:13:17;;;;;;;5.95;1.40;;;12.10;99.90;;;;;;5027427;28;20044;-57
2023/10/23 08:15:43;;;;;;;8.32;1.80;;;12.30;99.90;;;;;;5027014;28;20044;-47
2023/10/23 08:18:08;;;;;;;2.78;1.05;;;12.50;99.90;;;;;;5031800;28;20052;-48
2023/10/23 08:20:37;;;;;;;11.77;1.60;;;12.60;99.90;;;;;;5032269;28;20021;-51
2023/10/23 08:23:02;;;;;;;4.45;1.42;;;12.70;99.90;;;;;;5032286;28;20048;-52
2023/10/23 08:25:28;;;;;;;3.80;1.42;;;12.90;99.90;;;;;;5032055;28;20540;-47
2023/10/23 08:27:54;;;;;;;7.10;1.67;;;13.00;99.90;;;;;;5031517;28;20025;-52
2023/10/23 08:30:19;;;;;;;7.63;1.25;;;13.00;99.90;;;;;;5031155;28;20025;-49
2023/10/23 08:32:45;;;;;;;14.40;2.03;;;13.10;99.90;;;;;;5030208;28;20050;-49
2023/10/23 08:35:10;;;;;;;11.20;1.42;;;13.20;99.90;;;;;;5031586;28;20030;-51
2023/10/23 08:37:36;;;;;;;5.45;1.35;;;13.30;99.90;;;;;;5031403;28;20388;-50
2023/10/23 08:40:06;;;;;;;8.63;1.92;;;13.30;99.90;;;;;;5031740;28;20025;-45
2023/10/23 08:42:34;;;;;;;;;;;13.40;99.90;;;;;;5031792;28;20021;-47
2023/10/23 08:45:00;;;;;;;4.13;1.73;;;13.40;99.90;;;;;;5020051;28;19967;-49
2023/10/23 08:47:26;;;;;;;8.27;2.05;;;13.50;99.90;;;;;;5016731;28;20097;-45
2023/10/23 08:49:53;;;;;;;3.65;1.17;;;13.50;99.90;;;;;;5031502;28;20022;-49
2023/10/23 08:52:21;;;;;;;11.25;1.75;;;13.60;99.90;;;;;;5031173;28;20052;-49
2023/10/23 08:54:50;;;;;;;5.28;1.35;;;13.60;99.90;;;;;;5024487;28;20037;-49
2023/10/23 08:57:18;;;;;;;10.83;1.50;;;13.70;99.90;;;;;;5031290;28;20480;-46
2023/10/23 08:59:43;;;;;;;4.13;1.45;;;13.70;99.90;;;;;;5031161;28;20032;-50
2023/10/23 09:02:09;;;;;;;2.40;1.17;;;13.80;99.90;;;;;;5031137;28;20022;-50
2023/10/23 09:04:34;;;;;;;3.85;1.08;;;13.90;99.90;;;;;;5031312;28;20036;-50
2023/10/23 09:07:00;;;;;;;9.13;1.73;;;13.90;99.90;;;;;;5030905;28;20029;-51
2023/10/23 09:09:26;;;;;;;5.18;1.33;;;14.00;99.90;;;;;;5031048;28;20078;-53
2023/10/23 09:11:52;;;;;;;4.68;1.42;;;14.20;99.90;;;;;;5031041;28;20079;-49
2023/10/23 09:14:24;;;;;;;6.60;1.38;;;14.20;99.90;;;;;;5030811;28;20033;-53
2023/10/23 09:16:51;;;;;;;7.82;1.55;;;14.20;99.90;;;;;;5031198;28;20076;-45
2023/10/23 09:19:36;;;;;;;7.07;1.50;;;14.50;99.90;;;;;;5031114;28;20147;-49
2023/10/23 09:22:03;;;;;;;7.78;1.20;;;14.40;99.90;;;;;;5030883;28;20038;-45
2023/10/23 09:24:30;;;;;;;5.28;1.08;;;14.50;99.90;;;;;;5030982;28;20025;-49
2023/10/23 09:26:56;;;;;;;9.27;1.27;;;14.60;99.90;;;;;;5030815;28;20094;-47
2023/10/23 09:29:26;;;;;;;6.20;1.73;;;14.70;99.90;;;;;;5028704;28;20484;-50
2023/10/23 09:31:54;;;;;;;4.00;1.35;;;14.60;99.90;;;;;;5030530;28;20025;-50
2023/10/23 09:34:21;;;;;;;7.05;1.90;;;14.70;99.90;;;;;;5030399;28;20068;-46
2023/10/23 09:36:47;;;;;;;8.10;1.40;;;14.80;99.90;;;;;;5030690;28;20461;-47
2023/10/23 09:39:13;;;;;;;4.60;1.17;;;14.80;99.90;;;;;;5030523;28;20032;-46
2023/10/23 09:41:40;;;;;;;4.15;1.17;;;14.90;99.90;;;;;;5030637;28;20017;-50
2023/10/23 09:44:07;;;;;;;9.35;1.63;;;14.80;99.90;;;;;;5030489;28;20538;-54
2023/10/23 09:46:33;;;;;;;6.82;1.30;;;15.00;99.90;;;;;;5030742;28;20115;-50
2023/10/23 09:48:59;;;;;;;4.95;1.30;;;15.00;99.90;;;;;;5029798;28;20021;-50
2023/10/23 09:51:41;;;;;;;3.95;1.20;;;15.10;99.90;;;;;;5028608;28;20044;-51
2023/10/23 09:54:17;;;;;;;6.95;1.52;;;15.10;99.90;;;;;;5028021;28;20042;-48
2023/10/23 09:56:52;;;;;;;7.88;1.25;;;15.10;99.90;;;;;;5029160;28;20017;-50
2023/10/23 09:59:24;;;;;;;8.43;1.20;;;15.30;99.90;;;;;;5028845;28;20037;-50
2023/10/23 10:01:50;;;;;;;4.75;1.08;;;15.20;99.90;;;;;;5028907;28;20025;-49
2023/10/23 10:04:33;;;;;;;6.68;0.90;;;15.10;99.90;;;;;;5029252;28;20032;-57
2023/10/23 10:07:08;;;;;;;6.15;1.30;;;15.20;99.90;;;;;;5030633;28;20049;-55
2023/10/23 10:09:34;;;;;;;2.47;1.02;;;15.20;99.90;;;;;;5029956;28;20041;-50
2023/10/23 10:12:00;;;;;;;5.78;1.48;;;15.10;99.90;;;;;;5030166;28;20037;-53
2023/10/23 10:14:27;;;;;;;5.78;1.17;;;15.00;99.90;;;;;;5029799;28;20034;-53
2023/10/23 10:16:57;;;;;;;3.78;1.52;;;15.10;99.90;;;;;;5029591;28;20022;-49
2023/10/23 10:19:26;;;;;;;9.45;1.80;;;15.10;99.90;;;;;;5023690;28;20033;-49
2023/10/23 10:22:14;;;;;;;8.85;1.52;;;15.10;99.90;;;;;;5028639;28;20393;-53
2023/10/23 10:24:41;;;;;;;7.97;1.08;;;15.10;99.90;;;;;;5018016;28;20037;-52
2023/10/23 10:27:07;;;;;;;7.57;1.05;;;15.20;99.90;;;;;;5029477;28;20029;-57
2023/10/23 10:29:33;;;;;;;6.32;1.17;;;15.10;99.90;;;;;;5029467;28;20043;-56
2023/10/23 10:32:10;;;;;;;8.20;0.98;;;15.10;99.90;;;;;;5030112;28;20093;-46
2023/10/23 10:34:37;;;;;;;2.88;1.05;;;15.10;99.90;;;;;;5029780;28;20045;-52
2023/10/23 10:37:05;;;;;;;10.23;1.60;;;15.00;99.90;;;;;;5029642;28;20552;-46
2023/10/23 10:39:46;;;;;;;4.60;1.00;;;15.00;99.90;;;;;;5029861;28;20091;-52
2023/10/23 10:42:22;;;;;;;6.70;1.10;;;14.90;99.90;;;;;;5029934;28;20025;-51
2023/10/23 10:45:13;;;;;;;6.18;1.30;;;14.80;99.90;;;;;;5029852;28;20393;-51
2023/10/23 10:47:43;;;;;;;6.78;1.00;;;14.80;99.90;;;;;;5029973;28;20025;-49
2023/10/23 10:50:12;;;;;;;3.92;0.90;;;14.80;99.90;;;;;;5029913;28;20481;-47
2023/10/23 10:52:40;;;;;;;3.13;0.70;;;14.90;99.90;;;;;;5030111;28;20111;-48
2023/10/23 10:55:09;;;;;;;5.45;1.13;;;14.90;99.90;;;;;;5029669;28;20112;-52
2023/10/23 10:57:43;;;;;;;5.90;1.08;;;15.00;99.90;;;;;;5029416;28;20038;-53
2023/10/23 11:00:09;;;;;;;6.20;1.38;;;15.00;99.90;;;;;;5029631;28;20554;-52
2023/10/23 11:02:36;;;;;;;5.65;1.00;;;15.00;99.90;;;;;;5029362;28;20033;-50
2023/10/23 11:05:12;;;;;;;5.05;1.02;;;15.00;99.90;;;;;;5029569;28;20025;-52
2023/10/23 11:07:38;;;;;;;4.20;1.02;;;15.10;99.90;;;;;;5032711;28;20111;-50
2023/10/23 11:10:05;;;;;;;5.03;0.80;;;15.10;99.90;;;;;;5033349;28;20049;-54
2023/10/23 11:12:31;;;;;;;10.13;1.30;;;15.10;99.90;;;;;;5033132;28;20108;-55
2023/10/23 11:14:56;;;;;;;5.70;1.70;;;15.00;99.90;;;;;;5026895;28;20025;-49
2023/10/23 11:17:23;;;;;;;5.68;1.08;;;15.00;99.90;;;;;;5025994;28;20021;-52
2023/10/23 11:19:49;;;;;;;7.85;1.35;;;15.00;99.90;;;;;;5033260;28;20037;-56
2023/10/23 11:22:17;;;;;;;4.28;1.08;;;15.00;99.90;;;;;;5022305;28;20124;-50
2023/10/23 11:24:43;;;;;;;7.85;1.63;;;15.00;99.90;;;;;;5028995;28;20484;-46
2023/10/23 11:27:09;;;;;;;5.38;1.25;;;15.00;99.90;;;;;;5032736;28;20032;-52
2023/10/23 11:29:44;;;;;;;3.28;0.95;;;14.90;99.90;;;;;;5032730;28;20034;-49
2023/10/23 11:32:11;;;;;;;7.55;1.40;;;15.00;99.90;;;;;;5032680;28;20021;-52
2023/10/23 11:34:37;;;;;;;4.72;1.35;;;15.00;99.90;;;;;;5032940;28;20087;-48
2023/10/23 11:37:11;;;;;;;7.07;1.20;;;15.00;99.90;;;;;;5033067;28;20388;-54
2023/10/23 11:39:39;;;;;;;4.35;1.05;;;15.10;99.90;;;;;;5032788;28;20037;-51
2023/10/23 11:42:05;;;;;;;7.35;1.35;;;15.00;99.90;;;;;;5032853;28;20025;-58
2023/10/23 11:44:33;;;;;;;3.00;1.13;;;15.10;99.90;;;;;;5032756;28;20519;-55
2023/10/23 11:47:00;;;;;;;3.72;0.90;;;15.10;99.90;;;;;;5032923;28;20029;-53
2023/10/23 11:49:25;;;;;;;7.75;1.25;;;15.00;99.90;;;;;;5031457;28;20018;-50
2023/10/23 11:51:56;;;;;;;6.43;1.23;;;15.00;99.90;;;;;;5032406;28;20045;-55
2023/10/23 11:54:24;;;;;;;6.30;1.30;;;14.90;99.90;;;;;;5032444;28;20079;-49
2023/10/23 11:56:50;;;;;;;5.97;1.00;;;14.90;99.90;;;;;;5032472;28;20037;-54
2023/10/23 11:59:21;;;;;;;8.15;1.00;;;14.90;99.90;;;;;;5032654;28;20029;-50
2023/10/23 12:01:47;;;;;;;5.63;1.20;;;15.00;99.90;;;;;;5032508;28;20057;-53
2023/10/23 12:04:14;;;;;;;7.75;1.20;;;15.00;99.90;;;;;;5032453;28;20112;-51
2023/10/23 12:06:40;;;;;;;5.22;1.33;;;15.00;99.90;;;;;;5032432;28;20393;-50
2023/10/23 12:09:06;;;;;;;7.00;1.15;;;15.00;99.90;;;;;;5032134;28;20021;-54
2023/10/23 12:11:33;;;;;;;8.05;1.42;;;14.90;99.90;;;;;;5032003;28;20143;-50
2023/10/23 12:14:01;;;;;;;3.83;1.10;;;15.00;99.90;;;;;;5032506;28;20033;-51
2023/10/23 12:16:32;;;;;;;5.30;1.83;;;15.00;99.90;;;;;;5031782;28;20033;-48
2023/10/23 12:18:59;;;;;;;4.22;1.30;;;14.90;99.90;;;;;;5032060;28;20021;-52
2023/10/23 12:21:25;;;;;;;5.47;1.40;;;15.00;99.90;;;;;;5032008;28;20477;-48
2023/10/23 12:23:51;;;;;;;2.95;1.08;;;15.00;99.90;;;;;;5031963;28;20103;-49
2023/10/23 12:26:21;;;;;;;4.53;1.30;;;15.00;99.90;;;;;;5031935;28;20014;-46
2023/10/23 12:28:46;;;;;;;4.05;1.23;;;14.90;99.90;;;;;;5032095;28;20029;-51
2023/10/23 12:31:12;;;;;;;5.22;1.02;;;14.90;99.90;;;;;;5031974;28;20048;-56
2023/10/23 12:33:38;;;;;;;3.40;1.00;;;14.90;99.90;;;;;;5031322;28;20047;-48
2023/10/23 12:36:06;;;;;;;3.63;1.17;;;14.90;99.90;;;;;;5031617;28;20553;-52
2023/10/23 12:38:33;;;;;;;8.55;1.27;;;14.90;99.90;;;;;;5031352;28;20029;-53
2023/10/23 12:40:59;;;;;;;5.78;1.13;;;14.90;99.90;;;;;;5031644;28;20025;-46
2023/10/23 12:43:25;;;;;;;3.30;0.73;;;14.90;99.90;;;;;;5025098;28;20021;-46
2023/10/23 12:45:51;;;;;;;2.88;1.08;;;14.90;99.90;;;;;;5031260;28;20029;-49
2023/10/23 12:48:16;;;;;;;5.63;1.27;;;14.90;99.90;;;;;;5031235;28;20035;-53
2023/10/23 12:50:43;;;;;;;2.78;1.05;;;14.90;99.90;;;;;;5031334;28;20392;-51